sensor_id;sensor_type;location;lat;lon;timestamp;P1;durP1;ratioP1;P2;durP2;ratioP2
53040;SDS011;39326;42.650;23.248;2022-09-28T00:01:12;4.47;;;3.30;;
53040;SDS011;39326;42.650;23.248;2022-09-28T00:03:38;4.53;;;3.33;;
53040;SDS011;39326;42.650;23.248;2022-09-28T00:06:04;4.90;;;3.17;;
53040;SDS011;39326;42.650;23.248;2022-09-28T00:08:32;4.37;;;2.80;;
53040;SDS011;39326;42.650;23.248;2022-09-28T00:10:59;4.27;;;2.90;;
53040;SDS011;39326;42.650;23.248;2022-09-28T00:13:25;3.80;;;2.83;;
53040;SDS011;39326;42.650;23.248;2022-09-28T00:15:59;3.90;;;2.40;;
53040;SDS011;39326;42.650;23.248;2022-09-28T00:18:25;3.03;;;2.83;;
53040;SDS011;39326;42.650;23.248;2022-09-28T00:21:01;2.70;;;2.40;;
53040;SDS011;39326;42.650;23.248;2022-09-28T00:23:29;3.47;;;2.77;;
53040;SDS011;39326;42.650;23.248;2022-09-28T00:25:55;3.90;;;2.60;;
53040;SDS011;39326;42.650;23.248;2022-09-28T00:28:20;3.67;;;2.60;;
53040;SDS011;39326;42.650;23.248;2022-09-28T00:30:46;3.13;;;2.47;;
53040;SDS011;39326;42.650;23.248;2022-09-28T00:33:11;2.93;;;2.27;;
53040;SDS011;39326;42.650;23.248;2022-09-28T00:35:37;3.97;;;2.43;;
53040;SDS011;39326;42.650;23.248;2022-09-28T00:38:02;3.93;;;2.47;;
53040;SDS011;39326;42.650;23.248;2022-09-28T00:40:28;3.40;;;2.60;;
53040;SDS011;39326;42.650;23.248;2022-09-28T00:42:53;3.60;;;2.57;;
53040;SDS011;39326;42.650;23.248;2022-09-28T00:45:19;2.47;;;2.27;;
53040;SDS011;39326;42.650;23.248;2022-09-28T00:47:50;3.00;;;2.70;;
53040;SDS011;39326;42.650;23.248;2022-09-28T00:50:30;2.37;;;2.03;;
53040;SDS011;39326;42.650;23.248;2022-09-28T00:53:01;3.60;;;2.30;;
53040;SDS011;39326;42.650;23.248;2022-09-28T00:55:38;3.30;;;2.10;;
53040;SDS011;39326;42.650;23.248;2022-09-28T00:58:09;3.63;;;2.20;;
53040;SDS011;39326;42.650;23.248;2022-09-28T01:00:38;2.20;;;2.00;;
53040;SDS011;39326;42.650;23.248;2022-09-28T01:03:07;3.77;;;2.43;;
53040;SDS011;39326;42.650;23.248;2022-09-28T01:05:33;2.20;;;2.00;;
53040;SDS011;39326;42.650;23.248;2022-09-28T01:07:59;2.10;;;1.90;;
53040;SDS011;39326;42.650;23.248;2022-09-28T01:10:26;3.97;;;2.43;;
53040;SDS011;39326;42.650;23.248;2022-09-28T01:12:53;2.67;;;2.40;;
53040;SDS011;39326;42.650;23.248;2022-09-28T01:15:19;2.83;;;1.90;;
53040;SDS011;39326;42.650;23.248;2022-09-28T01:17:58;5.57;;;2.27;;
53040;SDS011;39326;42.650;23.248;2022-09-28T01:23:31;2.57;;;1.90;;
53040;SDS011;39326;42.650;23.248;2022-09-28T01:29:05;3.87;;;2.33;;
53040;SDS011;39326;42.650;23.248;2022-09-28T01:31:48;2.77;;;2.57;;
53040;SDS011;39326;42.650;23.248;2022-09-28T01:34:22;3.10;;;2.60;;
53040;SDS011;39326;42.650;23.248;2022-09-28T01:36:55;3.10;;;2.67;;
53040;SDS011;39326;42.650;23.248;2022-09-28T01:39:32;4.10;;;2.50;;
53040;SDS011;39326;42.650;23.248;2022-09-28T01:42:03;3.83;;;2.60;;
53040;SDS011;39326;42.650;23.248;2022-09-28T01:44:34;3.63;;;2.70;;
53040;SDS011;39326;42.650;23.248;2022-09-28T01:47:06;4.10;;;3.10;;
53040;SDS011;39326;42.650;23.248;2022-09-28T01:49:35;2.50;;;2.30;;
53040;SDS011;39326;42.650;23.248;2022-09-28T01:52:10;4.53;;;2.77;;
53040;SDS011;39326;42.650;23.248;2022-09-28T01:54:46;2.70;;;2.30;;
53040;SDS011;39326;42.650;23.248;2022-09-28T02:00:06;3.23;;;2.50;;
53040;SDS011;39326;42.650;23.248;2022-09-28T02:02:38;4.67;;;2.77;;
53040;SDS011;39326;42.650;23.248;2022-09-28T02:05:13;2.50;;;2.10;;
53040;SDS011;39326;42.650;23.248;2022-09-28T02:10:48;4.73;;;2.60;;
53040;SDS011;39326;42.650;23.248;2022-09-28T02:13:21;3.63;;;2.50;;
53040;SDS011;39326;42.650;23.248;2022-09-28T02:18:24;3.00;;;2.60;;
53040;SDS011;39326;42.650;23.248;2022-09-28T02:20:59;2.80;;;2.50;;
53040;SDS011;39326;42.650;23.248;2022-09-28T02:23:30;3.80;;;2.30;;
53040;SDS011;39326;42.650;23.248;2022-09-28T02:26:02;4.10;;;2.60;;
53040;SDS011;39326;42.650;23.248;2022-09-28T02:28:30;2.77;;;2.40;;
53040;SDS011;39326;42.650;23.248;2022-09-28T02:30:56;3.33;;;2.47;;
53040;SDS011;39326;42.650;23.248;2022-09-28T02:33:27;3.07;;;2.47;;
53040;SDS011;39326;42.650;23.248;2022-09-28T02:35:57;3.90;;;2.40;;
53040;SDS011;39326;42.650;23.248;2022-09-28T02:38:24;3.67;;;2.47;;
53040;SDS011;39326;42.650;23.248;2022-09-28T02:41:01;2.77;;;2.57;;
53040;SDS011;39326;42.650;23.248;2022-09-28T02:43:32;2.63;;;2.40;;
53040;SDS011;39326;42.650;23.248;2022-09-28T02:46:00;3.20;;;2.17;;
53040;SDS011;39326;42.650;23.248;2022-09-28T02:59:06;2.97;;;2.43;;
53040;SDS011;39326;42.650;23.248;2022-09-28T03:07:25;3.20;;;2.60;;
53040;SDS011;39326;42.650;23.248;2022-09-28T03:12:42;3.13;;;2.83;;
53040;SDS011;39326;42.650;23.248;2022-09-28T03:15:20;4.30;;;3.03;;
53040;SDS011;39326;42.650;23.248;2022-09-28T03:17:51;4.07;;;3.13;;
53040;SDS011;39326;42.650;23.248;2022-09-28T03:20:17;3.40;;;3.10;;
53040;SDS011;39326;42.650;23.248;2022-09-28T03:22:43;5.20;;;3.30;;
53040;SDS011;39326;42.650;23.248;2022-09-28T03:25:09;3.83;;;2.90;;
53040;SDS011;39326;42.650;23.248;2022-09-28T03:27:35;4.73;;;2.90;;
53040;SDS011;39326;42.650;23.248;2022-09-28T03:30:00;5.33;;;2.87;;
53040;SDS011;39326;42.650;23.248;2022-09-28T03:32:26;5.30;;;3.20;;
53040;SDS011;39326;42.650;23.248;2022-09-28T03:34:51;5.50;;;3.47;;
53040;SDS011;39326;42.650;23.248;2022-09-28T03:37:16;3.57;;;3.27;;
53040;SDS011;39326;42.650;23.248;2022-09-28T03:39:42;4.93;;;3.97;;
53040;SDS011;39326;42.650;23.248;2022-09-28T03:42:07;6.07;;;3.27;;
53040;SDS011;39326;42.650;23.248;2022-09-28T03:44:33;3.40;;;3.10;;
53040;SDS011;39326;42.650;23.248;2022-09-28T03:46:58;2.77;;;2.57;;
53040;SDS011;39326;42.650;23.248;2022-09-28T03:49:24;3.37;;;3.07;;
53040;SDS011;39326;42.650;23.248;2022-09-28T03:51:49;3.33;;;3.10;;
53040;SDS011;39326;42.650;23.248;2022-09-28T03:54:14;4.03;;;3.17;;
53040;SDS011;39326;42.650;23.248;2022-09-28T03:56:40;3.03;;;2.83;;
53040;SDS011;39326;42.650;23.248;2022-09-28T03:59:05;4.87;;;3.13;;
53040;SDS011;39326;42.650;23.248;2022-09-28T04:01:31;4.80;;;3.33;;
53040;SDS011;39326;42.650;23.248;2022-09-28T04:03:57;4.93;;;3.73;;
53040;SDS011;39326;42.650;23.248;2022-09-28T04:06:23;3.37;;;3.07;;
53040;SDS011;39326;42.650;23.248;2022-09-28T04:08:49;4.13;;;3.20;;
53040;SDS011;39326;42.650;23.248;2022-09-28T04:11:14;3.37;;;3.07;;
53040;SDS011;39326;42.650;23.248;2022-09-28T04:13:40;3.10;;;2.73;;
53040;SDS011;39326;42.650;23.248;2022-09-28T04:16:05;3.90;;;3.60;;
53040;SDS011;39326;42.650;23.248;2022-09-28T04:18:31;3.53;;;3.23;;
53040;SDS011;39326;42.650;23.248;2022-09-28T04:21:08;4.10;;;3.40;;
53040;SDS011;39326;42.650;23.248;2022-09-28T04:23:36;6.03;;;3.40;;
53040;SDS011;39326;42.650;23.248;2022-09-28T04:26:04;6.93;;;3.80;;
53040;SDS011;39326;42.650;23.248;2022-09-28T04:28:31;3.50;;;3.20;;
53040;SDS011;39326;42.650;23.248;2022-09-28T04:31:16;5.23;;;3.83;;
53040;SDS011;39326;42.650;23.248;2022-09-28T04:33:43;4.33;;;3.57;;
53040;SDS011;39326;42.650;23.248;2022-09-28T04:36:09;4.13;;;3.80;;
53040;SDS011;39326;42.650;23.248;2022-09-28T04:38:35;6.80;;;3.77;;
53040;SDS011;39326;42.650;23.248;2022-09-28T04:41:01;4.23;;;3.90;;
53040;SDS011;39326;42.650;23.248;2022-09-28T04:43:27;3.60;;;3.30;;
53040;SDS011;39326;42.650;23.248;2022-09-28T04:45:56;7.87;;;3.30;;
53040;SDS011;39326;42.650;23.248;2022-09-28T04:48:23;3.70;;;3.10;;
53040;SDS011;39326;42.650;23.248;2022-09-28T04:50:53;3.53;;;3.07;;
53040;SDS011;39326;42.650;23.248;2022-09-28T04:53:22;3.63;;;2.90;;
53040;SDS011;39326;42.650;23.248;2022-09-28T04:55:59;3.07;;;2.80;;
53040;SDS011;39326;42.650;23.248;2022-09-28T04:58:25;3.47;;;2.73;;
53040;SDS011;39326;42.650;23.248;2022-09-28T05:00:51;3.97;;;3.07;;
53040;SDS011;39326;42.650;23.248;2022-09-28T05:03:18;3.90;;;2.90;;
53040;SDS011;39326;42.650;23.248;2022-09-28T05:05:45;3.40;;;3.10;;
53040;SDS011;39326;42.650;23.248;2022-09-28T05:08:11;3.50;;;2.80;;
53040;SDS011;39326;42.650;23.248;2022-09-28T05:10:37;5.87;;;3.20;;
53040;SDS011;39326;42.650;23.248;2022-09-28T05:13:06;3.57;;;3.20;;
53040;SDS011;39326;42.650;23.248;2022-09-28T05:15:38;3.30;;;2.80;;
53040;SDS011;39326;42.650;23.248;2022-09-28T05:18:05;2.93;;;2.53;;
53040;SDS011;39326;42.650;23.248;2022-09-28T05:20:31;4.37;;;2.83;;
53040;SDS011;39326;42.650;23.248;2022-09-28T05:22:57;3.77;;;2.57;;
53040;SDS011;39326;42.650;23.248;2022-09-28T05:25:23;3.77;;;2.60;;
53040;SDS011;39326;42.650;23.248;2022-09-28T05:27:55;7.33;;;2.87;;
53040;SDS011;39326;42.650;23.248;2022-09-28T05:30:21;6.33;;;2.97;;
53040;SDS011;39326;42.650;23.248;2022-09-28T05:32:48;5.60;;;2.80;;
53040;SDS011;39326;42.650;23.248;2022-09-28T05:35:15;3.83;;;2.37;;
53040;SDS011;39326;42.650;23.248;2022-09-28T05:37:41;4.87;;;2.23;;
53040;SDS011;39326;42.650;23.248;2022-09-28T05:40:07;3.67;;;2.60;;
53040;SDS011;39326;42.650;23.248;2022-09-28T05:42:33;3.00;;;2.40;;
53040;SDS011;39326;42.650;23.248;2022-09-28T05:44:59;3.50;;;3.20;;
53040;SDS011;39326;42.650;23.248;2022-09-28T05:47:24;4.23;;;3.10;;
53040;SDS011;39326;42.650;23.248;2022-09-28T05:49:51;3.73;;;3.40;;
53040;SDS011;39326;42.650;23.248;2022-09-28T05:52:17;6.13;;;4.07;;
53040;SDS011;39326;42.650;23.248;2022-09-28T05:54:43;5.00;;;3.70;;
53040;SDS011;39326;42.650;23.248;2022-09-28T05:57:08;5.63;;;3.63;;
53040;SDS011;39326;42.650;23.248;2022-09-28T05:59:34;3.83;;;3.43;;
53040;SDS011;39326;42.650;23.248;2022-09-28T06:02:00;5.10;;;3.13;;
53040;SDS011;39326;42.650;23.248;2022-09-28T06:04:27;3.87;;;3.50;;
53040;SDS011;39326;42.650;23.248;2022-09-28T06:06:53;4.37;;;3.20;;
53040;SDS011;39326;42.650;23.248;2022-09-28T06:09:18;2.97;;;2.50;;
53040;SDS011;39326;42.650;23.248;2022-09-28T06:11:44;4.40;;;2.33;;
53040;SDS011;39326;42.650;23.248;2022-09-28T06:14:09;2.73;;;1.70;;
53040;SDS011;39326;42.650;23.248;2022-09-28T06:16:37;3.53;;;1.43;;
53040;SDS011;39326;42.650;23.248;2022-09-28T06:19:03;4.33;;;1.73;;
53040;SDS011;39326;42.650;23.248;2022-09-28T06:21:28;3.87;;;2.00;;
53040;SDS011;39326;42.650;23.248;2022-09-28T06:23:54;2.87;;;1.80;;
53040;SDS011;39326;42.650;23.248;2022-09-28T06:26:19;3.27;;;1.27;;
53040;SDS011;39326;42.650;23.248;2022-09-28T06:28:45;2.67;;;1.40;;
53040;SDS011;39326;42.650;23.248;2022-09-28T06:31:10;5.87;;;3.60;;
53040;SDS011;39326;42.650;23.248;2022-09-28T06:33:36;6.43;;;4.50;;
53040;SDS011;39326;42.650;23.248;2022-09-28T06:36:02;7.07;;;6.37;;
53040;SDS011;39326;42.650;23.248;2022-09-28T06:38:28;7.57;;;6.87;;
53040;SDS011;39326;42.650;23.248;2022-09-28T06:40:55;13.77;;;8.47;;
53040;SDS011;39326;42.650;23.248;2022-09-28T06:43:21;9.53;;;8.57;;
53040;SDS011;39326;42.650;23.248;2022-09-28T06:45:50;9.97;;;9.17;;
53040;SDS011;39326;42.650;23.248;2022-09-28T06:48:17;9.43;;;8.43;;
53040;SDS011;39326;42.650;23.248;2022-09-28T06:50:43;9.03;;;8.13;;
53040;SDS011;39326;42.650;23.248;2022-09-28T06:53:10;13.70;;;10.00;;
53040;SDS011;39326;42.650;23.248;2022-09-28T06:55:41;10.17;;;8.43;;
53040;SDS011;39326;42.650;23.248;2022-09-28T06:58:14;11.53;;;10.33;;
53040;SDS011;39326;42.650;23.248;2022-09-28T07:00:41;12.87;;;11.57;;
53040;SDS011;39326;42.650;23.248;2022-09-28T07:03:12;14.93;;;12.33;;
53040;SDS011;39326;42.650;23.248;2022-09-28T07:05:45;14.33;;;13.00;;
53040;SDS011;39326;42.650;23.248;2022-09-28T07:08:13;26.03;;;23.57;;
53040;SDS011;39326;42.650;23.248;2022-09-28T07:10:43;26.30;;;23.77;;
53040;SDS011;39326;42.650;23.248;2022-09-28T07:13:10;26.37;;;23.67;;
53040;SDS011;39326;42.650;23.248;2022-09-28T07:15:37;24.77;;;22.23;;
53040;SDS011;39326;42.650;23.248;2022-09-28T07:18:04;26.97;;;22.93;;
53040;SDS011;39326;42.650;23.248;2022-09-28T07:20:31;25.40;;;21.63;;
53040;SDS011;39326;42.650;23.248;2022-09-28T07:23:00;22.70;;;20.07;;
53040;SDS011;39326;42.650;23.248;2022-09-28T07:25:27;20.93;;;18.90;;
53040;SDS011;39326;42.650;23.248;2022-09-28T07:27:56;19.30;;;17.43;;
53040;SDS011;39326;42.650;23.248;2022-09-28T07:30:24;18.30;;;16.43;;
53040;SDS011;39326;42.650;23.248;2022-09-28T07:32:53;18.37;;;16.63;;
53040;SDS011;39326;42.650;23.248;2022-09-28T07:35:19;17.87;;;16.10;;
53040;SDS011;39326;42.650;23.248;2022-09-28T07:37:44;20.30;;;18.37;;
53040;SDS011;39326;42.650;23.248;2022-09-28T07:40:10;20.57;;;18.37;;
53040;SDS011;39326;42.650;23.248;2022-09-28T07:42:55;21.20;;;19.00;;
53040;SDS011;39326;42.650;23.248;2022-09-28T07:45:20;22.00;;;19.80;;
53040;SDS011;39326;42.650;23.248;2022-09-28T07:47:53;21.03;;;19.00;;
53040;SDS011;39326;42.650;23.248;2022-09-28T07:50:19;19.53;;;17.53;;
53040;SDS011;39326;42.650;23.248;2022-09-28T07:52:45;19.53;;;17.60;;
53040;SDS011;39326;42.650;23.248;2022-09-28T07:55:11;18.20;;;16.50;;
53040;SDS011;39326;42.650;23.248;2022-09-28T07:57:37;17.90;;;16.00;;
53040;SDS011;39326;42.650;23.248;2022-09-28T08:00:04;16.13;;;14.47;;
53040;SDS011;39326;42.650;23.248;2022-09-28T08:02:32;13.93;;;11.40;;
53040;SDS011;39326;42.650;23.248;2022-09-28T08:04:59;13.90;;;11.83;;
53040;SDS011;39326;42.650;23.248;2022-09-28T08:07:25;12.63;;;11.30;;
53040;SDS011;39326;42.650;23.248;2022-09-28T08:09:51;13.80;;;11.87;;
53040;SDS011;39326;42.650;23.248;2022-09-28T08:12:16;13.63;;;12.27;;
53040;SDS011;39326;42.650;23.248;2022-09-28T08:14:43;15.20;;;12.20;;
53040;SDS011;39326;42.650;23.248;2022-09-28T08:17:09;13.10;;;11.63;;
53040;SDS011;39326;42.650;23.248;2022-09-28T08:19:35;13.60;;;12.23;;
53040;SDS011;39326;42.650;23.248;2022-09-28T08:22:19;12.83;;;11.63;;
53040;SDS011;39326;42.650;23.248;2022-09-28T08:24:45;11.93;;;10.80;;
53040;SDS011;39326;42.650;23.248;2022-09-28T08:27:12;10.87;;;9.87;;
53040;SDS011;39326;42.650;23.248;2022-09-28T08:29:38;12.70;;;10.27;;
53040;SDS011;39326;42.650;23.248;2022-09-28T08:32:03;10.90;;;9.60;;
53040;SDS011;39326;42.650;23.248;2022-09-28T08:34:32;10.30;;;7.70;;
53040;SDS011;39326;42.650;23.248;2022-09-28T08:36:59;9.07;;;8.00;;
53040;SDS011;39326;42.650;23.248;2022-09-28T08:39:24;9.60;;;7.93;;
53040;SDS011;39326;42.650;23.248;2022-09-28T08:41:55;9.93;;;6.97;;
53040;SDS011;39326;42.650;23.248;2022-09-28T08:44:31;6.90;;;6.03;;
53040;SDS011;39326;42.650;23.248;2022-09-28T08:47:06;5.70;;;5.20;;
53040;SDS011;39326;42.650;23.248;2022-09-28T08:50:03;7.63;;;5.18;;
53040;SDS011;39326;42.650;23.248;2022-09-28T08:52:33;10.25;;;6.30;;
53040;SDS011;39326;42.650;23.248;2022-09-28T08:57:54;6.70;;;5.72;;
53040;SDS011;39326;42.650;23.248;2022-09-28T09:00:26;8.95;;;6.47;;
53040;SDS011;39326;42.650;23.248;2022-09-28T09:02:57;6.55;;;5.82;;
53040;SDS011;39326;42.650;23.248;2022-09-28T09:05:28;12.20;;;6.93;;
53040;SDS011;39326;42.650;23.248;2022-09-28T09:21:45;11.23;;;6.00;;
53040;SDS011;39326;42.650;23.248;2022-09-28T09:24:21;7.28;;;6.05;;
53040;SDS011;39326;42.650;23.248;2022-09-28T09:38:20;9.77;;;6.68;;
53040;SDS011;39326;42.650;23.248;2022-09-28T09:43:27;6.10;;;4.82;;
53040;SDS011;39326;42.650;23.248;2022-09-28T09:46:46;5.97;;;4.32;;
53040;SDS011;39326;42.650;23.248;2022-09-28T09:49:07;6.10;;;3.63;;
53040;SDS011;39326;42.650;23.248;2022-09-28T09:54:22;5.45;;;3.63;;
53040;SDS011;39326;42.650;23.248;2022-09-28T09:57:12;7.45;;;3.50;;
53040;SDS011;39326;42.650;23.248;2022-09-28T09:59:44;6.78;;;3.50;;
53040;SDS011;39326;42.650;23.248;2022-09-28T10:04:43;7.55;;;4.60;;
53040;SDS011;39326;42.650;23.248;2022-09-28T10:07:12;5.90;;;4.20;;
53040;SDS011;39326;42.650;23.248;2022-09-28T10:09:45;9.80;;;4.95;;
53040;SDS011;39326;42.650;23.248;2022-09-28T10:12:14;5.47;;;4.07;;
53040;SDS011;39326;42.650;23.248;2022-09-28T10:14:45;7.13;;;4.22;;
53040;SDS011;39326;42.650;23.248;2022-09-28T10:17:12;8.23;;;4.50;;
53040;SDS011;39326;42.650;23.248;2022-09-28T10:19:40;6.57;;;3.83;;
53040;SDS011;39326;42.650;23.248;2022-09-28T10:22:08;7.25;;;3.78;;
53040;SDS011;39326;42.650;23.248;2022-09-28T10:24:41;7.25;;;3.70;;
53040;SDS011;39326;42.650;23.248;2022-09-28T10:27:17;5.90;;;3.47;;
53040;SDS011;39326;42.650;23.248;2022-09-28T10:32:27;5.85;;;3.13;;
53040;SDS011;39326;42.650;23.248;2022-09-28T10:37:45;5.10;;;2.80;;
53040;SDS011;39326;42.650;23.248;2022-09-28T10:40:37;4.20;;;3.33;;
53040;SDS011;39326;42.650;23.248;2022-09-28T10:43:28;4.68;;;3.00;;
53040;SDS011;39326;42.650;23.248;2022-09-28T10:46:11;4.55;;;2.92;;
53040;SDS011;39326;42.650;23.248;2022-09-28T10:54:14;8.00;;;3.17;;
53040;SDS011;39326;42.650;23.248;2022-09-28T10:56:41;4.70;;;2.60;;
53040;SDS011;39326;42.650;23.248;2022-09-28T10:59:23;3.42;;;2.85;;
53040;SDS011;39326;42.650;23.248;2022-09-28T11:04:26;5.00;;;2.33;;
53040;SDS011;39326;42.650;23.248;2022-09-28T11:06:54;5.53;;;2.80;;
53040;SDS011;39326;42.650;23.248;2022-09-28T11:09:33;6.13;;;2.80;;
53040;SDS011;39326;42.650;23.248;2022-09-28T11:12:05;4.43;;;2.60;;
53040;SDS011;39326;42.650;23.248;2022-09-28T11:14:39;4.35;;;2.78;;
53040;SDS011;39326;42.650;23.248;2022-09-28T11:19:54;4.80;;;2.63;;
53040;SDS011;39326;42.650;23.248;2022-09-28T11:25:11;5.03;;;2.38;;
53040;SDS011;39326;42.650;23.248;2022-09-28T11:27:58;2.63;;;2.15;;
53040;SDS011;39326;42.650;23.248;2022-09-28T11:38:52;4.85;;;2.30;;
53040;SDS011;39326;42.650;23.248;2022-09-28T11:44:49;2.95;;;1.90;;
53040;SDS011;39326;42.650;23.248;2022-09-28T11:47:48;6.80;;;1.90;;
53040;SDS011;39326;42.650;23.248;2022-09-28T11:53:15;4.63;;;1.80;;
53040;SDS011;39326;42.650;23.248;2022-09-28T11:56:48;5.10;;;1.73;;
53040;SDS011;39326;42.650;23.248;2022-09-28T12:07:17;3.83;;;1.27;;
53040;SDS011;39326;42.650;23.248;2022-09-28T12:09:53;4.72;;;1.60;;
53040;SDS011;39326;42.650;23.248;2022-09-28T12:13:00;2.30;;;1.40;;
53040;SDS011;39326;42.650;23.248;2022-09-28T12:15:29;4.07;;;1.42;;
53040;SDS011;39326;42.650;23.248;2022-09-28T12:18:06;3.08;;;1.40;;
53040;SDS011;39326;42.650;23.248;2022-09-28T12:20:38;3.15;;;1.33;;
53040;SDS011;39326;42.650;23.248;2022-09-28T12:23:41;3.17;;;1.48;;
53040;SDS011;39326;42.650;23.248;2022-09-28T12:26:03;4.03;;;1.50;;
53040;SDS011;39326;42.650;23.248;2022-09-28T12:28:48;2.25;;;1.20;;
53040;SDS011;39326;42.650;23.248;2022-09-28T12:31:18;2.17;;;1.40;;
53040;SDS011;39326;42.650;23.248;2022-09-28T12:33:57;4.95;;;1.20;;
53040;SDS011;39326;42.650;23.248;2022-09-28T12:36:31;2.22;;;1.58;;
53040;SDS011;39326;42.650;23.248;2022-09-28T12:39:10;2.95;;;1.27;;
53040;SDS011;39326;42.650;23.248;2022-09-28T12:52:27;2.50;;;1.10;;
53040;SDS011;39326;42.650;23.248;2022-09-28T13:00:34;3.08;;;1.33;;
53040;SDS011;39326;42.650;23.248;2022-09-28T13:03:20;3.50;;;1.60;;
53040;SDS011;39326;42.650;23.248;2022-09-28T13:24:52;3.90;;;1.05;;
53040;SDS011;39326;42.650;23.248;2022-09-28T13:27:33;2.38;;;1.33;;
53040;SDS011;39326;42.650;23.248;2022-09-28T13:30:03;2.65;;;1.20;;
53040;SDS011;39326;42.650;23.248;2022-09-28T13:32:31;4.40;;;1.30;;
53040;SDS011;39326;42.650;23.248;2022-09-28T13:34:59;2.08;;;1.13;;
53040;SDS011;39326;42.650;23.248;2022-09-28T13:37:26;3.40;;;1.30;;
53040;SDS011;39326;42.650;23.248;2022-09-28T13:47:54;4.95;;;1.20;;
53040;SDS011;39326;42.650;23.248;2022-09-28T14:01:10;2.75;;;1.00;;
53040;SDS011;39326;42.650;23.248;2022-09-28T14:06:26;1.25;;;0.93;;
53040;SDS011;39326;42.650;23.248;2022-09-28T14:25:12;2.58;;;1.17;;
53040;SDS011;39326;42.650;23.248;2022-09-28T14:32:38;2.35;;;1.00;;
53040;SDS011;39326;42.650;23.248;2022-09-28T14:35:14;1.80;;;1.13;;
53040;SDS011;39326;42.650;23.248;2022-09-28T14:37:45;4.20;;;1.30;;
53040;SDS011;39326;42.650;23.248;2022-09-28T14:40:36;4.07;;;1.05;;
53040;SDS011;39326;42.650;23.248;2022-09-28T14:43:36;2.15;;;1.23;;
53040;SDS011;39326;42.650;23.248;2022-09-28T14:54:16;5.68;;;1.23;;
53040;SDS011;39326;42.650;23.248;2022-09-28T14:59:24;3.72;;;1.60;;
53040;SDS011;39326;42.650;23.248;2022-09-28T15:04:50;5.40;;;2.10;;
53040;SDS011;39326;42.650;23.248;2022-09-28T15:07:22;3.22;;;1.77;;
53040;SDS011;39326;42.650;23.248;2022-09-28T15:09:56;1.40;;;1.02;;
53040;SDS011;39326;42.650;23.248;2022-09-28T15:12:24;2.72;;;1.10;;
53040;SDS011;39326;42.650;23.248;2022-09-28T15:17:27;3.17;;;1.80;;
53040;SDS011;39326;42.650;23.248;2022-09-28T15:22:44;4.18;;;1.40;;
53040;SDS011;39326;42.650;23.248;2022-09-28T15:25:13;3.78;;;1.50;;
53040;SDS011;39326;42.650;23.248;2022-09-28T15:27:43;4.07;;;1.58;;
53040;SDS011;39326;42.650;23.248;2022-09-28T15:30:25;2.60;;;1.30;;
53040;SDS011;39326;42.650;23.248;2022-09-28T15:32:53;3.65;;;1.35;;
53040;SDS011;39326;42.650;23.248;2022-09-28T15:35:22;1.80;;;0.98;;
53040;SDS011;39326;42.650;23.248;2022-09-28T15:37:50;4.63;;;1.33;;
53040;SDS011;39326;42.650;23.248;2022-09-28T15:40:36;2.60;;;1.20;;
53040;SDS011;39326;42.650;23.248;2022-09-28T15:43:06;4.45;;;1.55;;
53040;SDS011;39326;42.650;23.248;2022-09-28T15:45:54;3.25;;;1.60;;
53040;SDS011;39326;42.650;23.248;2022-09-28T15:51:17;4.38;;;1.92;;
53040;SDS011;39326;42.650;23.248;2022-09-28T15:53:58;4.10;;;2.65;;
53040;SDS011;39326;42.650;23.248;2022-09-28T15:56:28;3.97;;;2.78;;
53040;SDS011;39326;42.650;23.248;2022-09-28T15:59:06;2.95;;;1.73;;
53040;SDS011;39326;42.650;23.248;2022-09-28T16:01:46;4.38;;;1.55;;
53040;SDS011;39326;42.650;23.248;2022-09-28T16:09:34;4.95;;;1.98;;
53040;SDS011;39326;42.650;23.248;2022-09-28T16:12:21;6.03;;;1.60;;
53040;SDS011;39326;42.650;23.248;2022-09-28T16:14:50;3.15;;;1.90;;
53040;SDS011;39326;42.650;23.248;2022-09-28T16:17:18;3.03;;;1.77;;
53040;SDS011;39326;42.650;23.248;2022-09-28T16:19:55;4.32;;;1.70;;
53040;SDS011;39326;42.650;23.248;2022-09-28T16:22:21;3.90;;;1.65;;
53040;SDS011;39326;42.650;23.248;2022-09-28T16:24:54;6.65;;;2.90;;
53040;SDS011;39326;42.650;23.248;2022-09-28T16:27:26;4.32;;;1.75;;
53040;SDS011;39326;42.650;23.248;2022-09-28T16:32:47;2.00;;;1.30;;
53040;SDS011;39326;42.650;23.248;2022-09-28T16:37:43;2.35;;;1.35;;
53040;SDS011;39326;42.650;23.248;2022-09-28T16:40:11;3.05;;;1.60;;
53040;SDS011;39326;42.650;23.248;2022-09-28T16:42:38;4.63;;;1.73;;
53040;SDS011;39326;42.650;23.248;2022-09-28T16:45:05;3.15;;;1.80;;
53040;SDS011;39326;42.650;23.248;2022-09-28T16:47:32;3.97;;;1.50;;
53040;SDS011;39326;42.650;23.248;2022-09-28T16:50:04;3.42;;;1.58;;
53040;SDS011;39326;42.650;23.248;2022-09-28T16:52:30;4.18;;;1.60;;
53040;SDS011;39326;42.650;23.248;2022-09-28T16:55:15;4.88;;;2.47;;
53040;SDS011;39326;42.650;23.248;2022-09-28T16:57:45;4.85;;;2.92;;
53040;SDS011;39326;42.650;23.248;2022-09-28T17:00:14;4.05;;;3.13;;
53040;SDS011;39326;42.650;23.248;2022-09-28T17:02:49;5.37;;;2.37;;
53040;SDS011;39326;42.650;23.248;2022-09-28T17:05:15;5.65;;;2.20;;
53040;SDS011;39326;42.650;23.248;2022-09-28T17:07:45;4.97;;;2.13;;
53040;SDS011;39326;42.650;23.248;2022-09-28T17:12:40;2.75;;;1.85;;
53040;SDS011;39326;42.650;23.248;2022-09-28T17:15:06;3.88;;;1.83;;
53040;SDS011;39326;42.650;23.248;2022-09-28T17:17:31;4.18;;;1.92;;
53040;SDS011;39326;42.650;23.248;2022-09-28T17:19:57;4.75;;;1.83;;
53040;SDS011;39326;42.650;23.248;2022-09-28T17:22:23;3.60;;;1.67;;
53040;SDS011;39326;42.650;23.248;2022-09-28T17:24:48;4.00;;;1.90;;
53040;SDS011;39326;42.650;23.248;2022-09-28T17:27:14;6.97;;;2.70;;
53040;SDS011;39326;42.650;23.248;2022-09-28T17:29:43;3.55;;;1.77;;
53040;SDS011;39326;42.650;23.248;2022-09-28T17:32:15;2.15;;;1.95;;
53040;SDS011;39326;42.650;23.248;2022-09-28T17:34:42;4.00;;;1.70;;
53040;SDS011;39326;42.650;23.248;2022-09-28T17:37:10;3.90;;;1.20;;
53040;SDS011;39326;42.650;23.248;2022-09-28T17:39:38;2.17;;;1.50;;
53040;SDS011;39326;42.650;23.248;2022-09-28T17:42:03;2.40;;;1.10;;
53040;SDS011;39326;42.650;23.248;2022-09-28T17:44:29;2.45;;;1.50;;
53040;SDS011;39326;42.650;23.248;2022-09-28T17:46:54;1.50;;;1.27;;
53040;SDS011;39326;42.650;23.248;2022-09-28T17:49:20;3.50;;;1.50;;
53040;SDS011;39326;42.650;23.248;2022-09-28T17:51:45;3.93;;;1.60;;
53040;SDS011;39326;42.650;23.248;2022-09-28T17:54:10;2.88;;;1.90;;
53040;SDS011;39326;42.650;23.248;2022-09-28T17:56:37;3.25;;;2.80;;
53040;SDS011;39326;42.650;23.248;2022-09-28T17:59:04;4.18;;;1.80;;
53040;SDS011;39326;42.650;23.248;2022-09-28T18:01:32;5.40;;;2.08;;
53040;SDS011;39326;42.650;23.248;2022-09-28T18:03:59;3.35;;;1.80;;
53040;SDS011;39326;42.650;23.248;2022-09-28T18:06:28;3.10;;;1.73;;
53040;SDS011;39326;42.650;23.248;2022-09-28T18:08:56;3.65;;;1.73;;
53040;SDS011;39326;42.650;23.248;2022-09-28T18:11:22;5.00;;;1.90;;
53040;SDS011;39326;42.650;23.248;2022-09-28T18:13:47;3.85;;;2.00;;
53040;SDS011;39326;42.650;23.248;2022-09-28T18:16:12;3.05;;;1.80;;
53040;SDS011;39326;42.650;23.248;2022-09-28T18:18:39;4.10;;;1.50;;
53040;SDS011;39326;42.650;23.248;2022-09-28T18:21:07;1.83;;;1.55;;
53040;SDS011;39326;42.650;23.248;2022-09-28T18:23:36;2.95;;;1.58;;
53040;SDS011;39326;42.650;23.248;2022-09-28T18:26:03;3.53;;;1.67;;
53040;SDS011;39326;42.650;23.248;2022-09-28T18:28:35;3.75;;;2.40;;
53040;SDS011;39326;42.650;23.248;2022-09-28T18:31:05;2.60;;;1.77;;
53040;SDS011;39326;42.650;23.248;2022-09-28T18:33:34;2.50;;;1.50;;